Time;durP1;ratioP1;P1;durP2;ratioP2;P2;SDS_P1;SDS_P2;PMS_P1;PMS_P2;Temp;Humidity;BMP_temperature;BMP_pressure;BME280_temperature;BME280_humidity;BME280_pressure;Samples;Min_cycle;Max_cycle;Signal;HPM_P1;HPM_P2
2023/06/06 00:01:29;;;;;;;5.40;1.40;;;;;;;15.37;86.27;95158.38;4906897;29;20470;-83
2023/06/06 00:03:56;;;;;;;12.35;1.63;;;;;;;15.10;87.23;95150.41;4906543;29;20031;-87
2023/06/06 00:06:24;;;;;;;3.92;1.45;;;;;;;15.21;80.79;95157.69;4924048;29;20032;-84
2023/06/06 00:08:52;;;;;;;4.00;1.45;;;;;;;15.21;82.36;95159.50;4891069;29;20486;-84
2023/06/06 00:11:18;;;;;;;1.63;1.08;;;;;;;15.06;82.65;95161.41;4905888;29;20062;-85
2023/06/06 00:13:44;;;;;;;2.55;1.23;;;;;;;15.00;87.76;95149.94;4906744;29;20047;-86
2023/06/06 00:16:12;;;;;;;1.67;1.13;;;;;;;15.02;78.59;95145.38;4890024;29;20036;-86
2023/06/06 00:18:39;;;;;;;1.57;1.00;;;;;;;15.04;78.75;95148.56;4891331;29;20040;-86
2023/06/06 00:21:04;;;;;;;1.73;1.48;;;;;;;15.07;85.73;95147.38;4889768;29;20375;-88
2023/06/06 00:23:30;;;;;;;2.72;1.00;;;;;;;14.97;81.85;95149.53;4906489;29;20067;-84
2023/06/06 00:25:56;;;;;;;3.97;1.00;;;;;;;14.88;82.13;95148.09;4906645;29;20039;-85
2023/06/06 00:28:22;;;;;;;5.07;1.10;;;;;;;14.86;81.67;95148.28;4890046;29;20035;-84
2023/06/06 00:30:47;;;;;;;2.50;1.40;;;;;;;14.83;84.78;95125.19;4890282;29;20478;-84
2023/06/06 00:33:13;;;;;;;2.42;1.10;;;;;;;14.77;82.00;95129.38;4905338;29;20406;-85
2023/06/06 00:35:38;;;;;;;1.63;1.30;;;;;;;14.72;81.83;95143.97;4889129;29;20455;-87
2023/06/06 00:38:03;;;;;;;1.75;1.27;;;;;;;14.75;85.74;95148.81;4897759;29;20525;-87
2023/06/06 00:40:29;;;;;;;1.35;1.00;;;;;;;14.46;85.63;95136.78;4881705;29;20032;-88
2023/06/06 00:42:55;;;;;;;4.15;0.90;;;;;;;14.61;83.16;95137.47;4888202;29;20036;-85
2023/06/06 00:45:21;;;;;;;6.03;1.25;;;;;;;14.70;88.04;95148.59;4906180;29;20036;-87
2023/06/06 00:47:46;;;;;;;1.73;1.00;;;;;;;14.43;87.24;95142.38;4923370;29;20087;-84
2023/06/06 00:50:12;;;;;;;3.55;1.30;;;;;;;14.46;88.44;95146.41;4905674;29;20775;-88
2023/06/06 00:52:45;;;;;;;2.22;0.80;;;;;;;14.43;89.36;95133.75;4890479;29;20031;-86
2023/06/06 00:55:11;;;;;;;3.15;1.20;;;;;;;14.42;93.26;95145.16;4922002;29;20086;-86
2023/06/06 00:57:37;;;;;;;2.70;1.13;;;;;;;14.21;91.86;95144.19;4890255;29;20525;-87
2023/06/06 01:00:06;;;;;;;3.15;1.10;;;;;;;14.23;90.96;95142.19;4889472;29;20035;-87
2023/06/06 01:02:37;;;;;;;2.28;1.10;;;;;;;14.16;90.51;95148.31;4890707;29;20040;-87
2023/06/06 01:05:09;;;;;;;2.05;1.15;;;;;;;14.32;93.78;95148.06;4890451;29;20473;-88
2023/06/06 01:07:36;;;;;;;2.08;1.30;;;;;;;14.26;91.41;95139.22;4905255;29;20130;-86
2023/06/06 01:10:06;;;;;;;3.13;1.38;;;;;;;14.22;96.11;95152.81;4890211;29;20036;-85
2023/06/06 01:12:40;;;;;;;3.13;1.20;;;;;;;14.31;89.75;95151.69;4904686;29;20042;-87
2023/06/06 01:15:13;;;;;;;1.10;1.00;;;;;;;14.20;96.59;95141.75;4889691;29;20039;-84
2023/06/06 01:18:29;;;;;;;2.70;1.20;;;;;;;14.02;92.80;95139.63;4905402;29;20031;-87
2023/06/06 01:20:58;;;;;;;3.45;1.10;;;;;;;13.99;95.89;95139.19;4921847;29;20397;-84
2023/06/06 01:23:27;;;;;;;2.53;1.15;;;;;;;13.94;97.65;95136.31;4889994;29;20047;-88
2023/06/06 01:25:53;;;;;;;2.55;1.00;;;;;;;13.70;96.03;95140.09;4904830;29;20036;-87
2023/06/06 01:28:19;;;;;;;1.73;1.08;;;;;;;13.79;99.22;95141.59;4906091;29;20035;-85
2023/06/06 01:30:45;;;;;;;4.40;1.08;;;;;;;13.67;100.00;95143.09;4889402;29;20023;-88
2023/06/06 01:33:43;;;;;;;5.75;1.10;;;;;;;13.67;99.68;95145.69;4889409;29;20402;-91
2023/06/06 01:36:33;;;;;;;7.22;1.20;;;;;;;13.68;100.00;95147.28;4899934;29;20565;-86
2023/06/06 01:39:05;;;;;;;2.03;1.13;;;;;;;13.68;98.98;95157.69;4884359;29;20063;-86
2023/06/06 01:41:34;;;;;;;3.33;1.10;;;;;;;13.70;100.00;95160.94;4890207;29;20043;-85
2023/06/06 01:44:00;;;;;;;5.80;1.05;;;;;;;13.69;99.93;95157.53;4905217;29;20505;-85
2023/06/06 01:46:26;;;;;;;1.60;1.02;;;;;;;13.55;100.00;95160.97;4904284;29;20036;-85
2023/06/06 01:48:52;;;;;;;3.70;1.50;;;;;;;13.50;100.00;95158.13;4905467;29;20559;-84
2023/06/06 01:51:18;;;;;;;2.55;1.13;;;;;;;13.73;97.59;95155.34;4904403;29;20028;-87
2023/06/06 01:53:44;;;;;;;4.25;1.10;;;;;;;13.77;95.11;95154.00;4905930;29;20023;-90
2023/06/06 01:56:13;;;;;;;2.42;0.90;;;;;;;13.72;94.41;95154.53;4904859;29;20047;-87
2023/06/06 01:58:41;;;;;;;5.38;1.30;;;;;;;13.82;93.70;95159.44;4929376;29;20134;-93
2023/06/06 02:01:07;;;;;;;2.67;1.02;;;;;;;13.87;94.24;95157.09;4905060;29;20063;-89
2023/06/06 02:03:36;;;;;;;3.70;1.25;;;;;;;13.61;97.86;95162.03;4905743;29;20137;-91
2023/06/06 02:06:07;;;;;;;2.85;1.10;;;;;;;13.42;100.00;95163.41;4913722;29;20039;-90
2023/06/06 02:08:34;;;;;;;5.72;1.02;;;;;;;13.30;100.00;95161.47;4907778;29;20328;-86
2023/06/06 02:11:03;;;;;;;1.65;1.02;;;;;;;13.35;100.00;95157.34;4909533;29;20169;-87
2023/06/06 02:13:33;;;;;;;4.25;1.40;;;;;;;13.24;100.00;95165.59;4909091;29;20036;-89
2023/06/06 02:16:07;;;;;;;2.35;1.02;;;;;;;13.46;98.31;95156.03;4931849;29;20118;-89
2023/06/06 02:18:32;;;;;;;3.20;1.30;;;;;;;13.27;100.00;95169.63;4908876;29;20036;-88
2023/06/06 02:24:20;;;;;;;2.03;1.23;;;;;;;13.19;100.00;95171.38;4926299;29;20119;-88
2023/06/06 02:26:47;;;;;;;2.50;1.55;;;;;;;13.19;100.00;95166.16;4906645;29;20058;-87
2023/06/06 02:29:13;;;;;;;2.03;1.25;;;;;;;13.14;100.00;95158.09;4908260;29;20058;-87
2023/06/06 02:31:39;;;;;;;2.28;1.25;;;;;;;13.11;100.00;95165.44;4906668;29;20154;-86
2023/06/06 02:34:05;;;;;;;3.60;1.15;;;;;;;13.12;100.00;95165.28;4892512;29;20027;-87
2023/06/06 02:36:31;;;;;;;1.48;1.00;;;;;;;13.13;100.00;95172.06;4898877;29;20406;-87
2023/06/06 02:39:00;;;;;;;1.55;1.05;;;;;;;13.10;100.00;95174.22;4902532;29;20039;-88
2023/06/06 02:41:26;;;;;;;4.90;1.90;;;;;;;13.01;100.00;95170.88;4892998;29;20064;-86
2023/06/06 02:43:51;;;;;;;1.58;1.00;;;;;;;13.01;100.00;95173.47;4890693;29;20144;-86
2023/06/06 02:46:17;;;;;;;3.55;1.20;;;;;;;12.97;100.00;95187.03;4890163;29;20032;-85
2023/06/06 02:51:27;;;;;;;4.38;1.30;;;;;;;12.99;100.00;95177.25;4910688;29;20099;-89
2023/06/06 02:53:53;;;;;;;1.63;1.20;;;;;;;12.86;100.00;95187.47;4908021;29;20703;-91
2023/06/06 02:56:18;;;;;;;1.20;1.00;;;;;;;12.92;100.00;95186.75;4906733;29;20039;-86
2023/06/06 02:58:44;;;;;;;4.10;1.50;;;;;;;12.93;100.00;95191.78;4891956;29;20144;-87
2023/06/06 03:01:12;;;;;;;12.20;2.33;;;;;;;12.72;100.00;95180.44;4905990;29;20138;-88
2023/06/06 03:03:38;;;;;;;3.17;1.55;;;;;;;12.79;100.00;95187.38;4892017;29;20154;-87
2023/06/06 03:06:06;;;;;;;2.47;1.60;;;;;;;12.81;100.00;95190.59;4890492;29;20036;-88
2023/06/06 03:08:38;;;;;;;2.67;1.73;;;;;;;12.61;100.00;95197.31;4907545;29;20067;-88
2023/06/06 03:11:03;;;;;;;3.45;1.98;;;;;;;12.64;100.00;95195.16;4890746;29;20028;-88
2023/06/06 03:13:29;;;;;;;3.33;1.98;;;;;;;12.60;100.00;95196.50;4906514;29;20024;-87
2023/06/06 03:15:54;;;;;;;3.85;1.77;;;;;;;12.79;100.00;95197.78;4888371;29;20024;-87
2023/06/06 03:18:20;;;;;;;3.38;1.90;;;;;;;12.99;100.00;95195.44;4883768;29;20036;-87
2023/06/06 03:20:48;;;;;;;2.00;1.45;;;;;;;13.00;100.00;95190.06;4907220;29;20028;-87
2023/06/06 03:23:14;;;;;;;7.80;6.43;;;;;;;13.05;100.00;95192.13;4889185;29;20052;-85
2023/06/06 03:25:41;;;;;;;20.20;12.52;;;;;;;13.19;100.00;95191.38;4907225;29;20026;-85
2023/06/06 03:28:07;;;;;;;10.43;7.47;;;;;;;13.51;100.00;95182.34;4889918;29;20324;-84
2023/06/06 03:30:32;;;;;;;5.53;4.28;;;;;;;14.87;100.00;95175.97;4890528;29;20102;-85
2023/06/06 03:33:00;;;;;;;4.97;2.85;;;;;;;16.18;91.48;95171.25;4890737;29;20035;-83
2023/06/06 03:35:28;;;;;;;3.47;2.00;;;;;;;16.97;84.99;95179.09;4905769;29;20490;-83
2023/06/06 03:37:55;;;;;;;3.35;1.52;;;;;;;17.38;81.33;95174.38;4890803;29;20042;-82
2023/06/06 03:40:24;;;;;;;3.30;1.00;;;;;;;17.24;77.38;95174.63;4921867;29;20032;-82
2023/06/06 03:42:50;;;;;;;4.50;1.58;;;;;;;18.00;73.85;95172.09;4891064;29;20043;-82
2023/06/06 03:45:19;;;;;;;2.33;1.30;;;;;;;17.70;79.27;95169.22;4904956;29;20043;-84
2023/06/06 03:47:45;;;;;;;;;;;;;;;16.46;83.16;95172.88;4906699;29;20040;-83
2023/06/06 03:50:11;;;;;;;3.63;1.25;;;;;;;16.96;76.99;95168.81;4906042;29;19918;-82
2023/06/06 03:52:37;;;;;;;2.92;1.25;;;;;;;18.33;72.49;95154.34;4905239;29;20038;-82
2023/06/06 03:55:03;;;;;;;3.20;1.08;;;;;;;19.15;67.47;95159.25;4906261;29;20086;-82
2023/06/06 03:57:28;;;;;;;3.92;1.08;;;;;;;19.12;69.67;95159.69;4888762;29;20062;-82
2023/06/06 03:59:54;;;;;;;2.90;1.15;;;;;;;19.60;66.56;95158.97;4906200;29;20468;-81
2023/06/06 04:02:20;;;;;;;2.50;1.40;;;;;;;18.86;70.47;95167.81;4888897;29;20174;-82
2023/06/06 04:04:51;;;;;;;1.45;1.23;;;;;;;19.04;74.35;95159.97;4906267;29;20039;-82
2023/06/06 04:07:18;;;;;;;3.28;1.20;;;;;;;19.14;73.33;95165.53;4906440;29;20035;-82
2023/06/06 04:09:43;;;;;;;2.05;1.30;;;;;;;19.62;66.17;95159.56;4905469;29;20035;-82
2023/06/06 04:12:10;;;;;;;2.40;1.00;;;;;;;19.86;62.80;95169.16;4890019;29;20039;-81
2023/06/06 04:14:35;;;;;;;4.43;1.50;;;;;;;19.68;64.37;95166.56;4904699;29;20429;-81
2023/06/06 04:17:04;;;;;;;2.10;1.17;;;;;;;19.83;65.72;95161.72;4906191;29;20307;-81
2023/06/06 04:19:30;;;;;;;2.03;1.30;;;;;;;21.00;56.13;95174.09;4905117;29;20382;-82
2023/06/06 04:21:58;;;;;;;1.60;1.13;;;;;;;21.34;54.59;95172.50;4923281;29;20030;-81
2023/06/06 04:24:23;;;;;;;4.20;1.23;;;;;;;21.92;53.75;95172.38;4904353;29;20040;-82
2023/06/06 04:26:49;;;;;;;3.30;1.08;;;;;;;22.59;49.88;95166.19;4889797;29;20043;-87
2023/06/06 04:29:15;;;;;;;2.72;1.10;;;;;;;22.90;51.75;95171.94;4905265;29;20114;-83
2023/06/06 04:31:44;;;;;;;3.13;0.98;;;;;;;22.53;49.45;95169.78;4903856;29;20035;-86
2023/06/06 04:34:10;;;;;;;8.18;2.20;;;;;;;23.34;47.87;95171.00;4922807;29;20181;-88
2023/06/06 04:36:38;;;;;;;2.42;1.17;;;;;;;23.18;46.17;95161.28;4903532;29;20540;-78
2023/06/06 04:39:05;;;;;;;4.70;1.33;;;;;;;20.91;51.72;95159.66;4905865;29;20065;-79
2023/06/06 04:41:31;;;;;;;1.58;1.20;;;;;;;21.99;49.45;95160.63;4903924;29;20051;-80
2023/06/06 04:44:02;;;;;;;3.25;1.23;;;;;;;22.24;50.34;95151.59;4905271;29;20053;-87
2023/06/06 04:46:31;;;;;;;2.90;0.95;;;;;;;22.99;48.72;95159.94;4904835;29;20027;-81
2023/06/06 04:48:59;;;;;;;2.85;1.25;;;;;;;22.43;46.77;95159.06;4904194;29;20114;-82
2023/06/06 04:51:30;;;;;;;;;;;;;;;23.02;46.10;95160.25;4906230;29;20151;-83
2023/06/06 04:53:58;;;;;;;1.23;1.00;;;;;;;23.39;44.00;95152.56;4919575;29;19914;-82
2023/06/06 04:56:25;;;;;;;5.28;1.27;;;;;;;23.80;43.86;95161.81;4922684;29;20611;-80
2023/06/06 04:58:52;;;;;;;1.47;1.20;;;;;;;23.95;44.29;95155.91;4904102;29;20031;-83
2023/06/06 05:01:18;;;;;;;2.80;0.88;;;;;;;23.23;45.05;95153.41;4905289;29;20087;-83
2023/06/06 05:03:44;;;;;;;2.92;1.30;;;;;;;24.28;43.26;95155.72;4904742;29;20137;-82
2023/06/06 05:06:10;;;;;;;6.20;1.70;;;;;;;24.11;42.39;95152.38;4888967;29;20028;-85
2023/06/06 05:08:44;;;;;;;2.95;1.33;;;;;;;23.82;42.50;95159.75;4921912;29;20066;-83
2023/06/06 05:11:13;;;;;;;2.47;1.20;;;;;;;24.75;42.48;95163.03;4888719;29;20032;-84
2023/06/06 05:13:39;;;;;;;1.90;0.95;;;;;;;25.32;40.96;95163.16;4904657;29;20091;-81
2023/06/06 05:16:05;;;;;;;4.57;1.08;;;;;;;24.79;40.94;95156.19;4903558;29;20055;-80
2023/06/06 05:18:31;;;;;;;1.67;1.08;;;;;;;23.81;42.72;95149.38;4905032;29;20032;-84
2023/06/06 05:21:00;;;;;;;1.85;1.05;;;;;;;24.61;41.88;95147.56;4921934;29;20248;-83
2023/06/06 05:23:30;;;;;;;2.85;1.33;;;;;;;25.96;40.00;95148.59;4888450;29;20532;-86
2023/06/06 05:25:57;;;;;;;1.80;1.10;;;;;;;27.05;37.67;95142.88;4891763;29;20031;-80
2023/06/06 05:28:27;;;;;;;1.27;1.08;;;;;;;28.26;36.39;95146.97;4903421;29;20425;-81
2023/06/06 05:30:53;;;;;;;1.80;1.20;;;;;;;26.42;40.27;95140.75;4904455;29;20457;-84
2023/06/06 05:33:22;;;;;;;3.03;1.20;;;;;;;27.49;37.94;95150.25;4903532;29;20027;-89
2023/06/06 05:35:47;;;;;;;2.00;0.98;;;;;;;28.84;35.64;95139.09;4888539;29;20031;-81
2023/06/06 05:38:15;;;;;;;2.28;1.40;;;;;;;29.90;36.47;95146.84;4888413;29;20035;-81
2023/06/06 05:40:40;;;;;;;;;;;;;;;28.82;35.11;95152.75;4903934;29;20054;-79
2023/06/06 05:43:05;;;;;;;1.65;0.98;;;;;;;30.41;34.51;95149.63;4921114;29;20207;-86
2023/06/06 05:45:31;;;;;;;1.33;1.20;;;;;;;29.64;36.82;95158.88;4887448;29;20031;-88
2023/06/06 05:47:56;;;;;;;2.78;0.90;;;;;;;30.47;35.89;95161.84;4904299;29;20588;-82
2023/06/06 05:50:22;;;;;;;3.20;1.00;;;;;;;30.68;34.92;95159.66;4920100;29;20042;-83
2023/06/06 05:52:47;;;;;;;2.97;1.10;;;;;;;30.34;35.02;95149.19;4921371;29;20035;-82
2023/06/06 05:55:33;;;;;;;3.78;1.30;;;;;;;29.62;38.24;95163.72;4887458;29;20024;-82
2023/06/06 05:57:59;;;;;;;2.70;1.05;;;;;;;29.99;35.95;95157.69;4887562;29;20032;-83
2023/06/06 06:00:25;;;;;;;3.13;0.90;;;;;;;32.12;34.02;95148.47;4904170;29;20123;-83
2023/06/06 06:02:53;;;;;;;2.05;1.17;;;;;;;30.31;34.23;95149.78;4887034;29;20110;-81
2023/06/06 06:05:19;;;;;;;3.03;1.27;;;;;;;32.18;33.74;95149.94;4888707;29;20035;-82
2023/06/06 06:07:47;;;;;;;1.10;1.00;;;;;;;32.89;31.52;95154.50;4902755;29;20532;-86
2023/06/06 06:10:13;;;;;;;2.80;1.08;;;;;;;30.91;33.24;95136.53;4904515;29;20603;-83
2023/06/06 06:12:38;;;;;;;1.73;0.95;;;;;;;30.80;35.38;95136.72;4887381;29;20028;-81
2023/06/06 06:15:04;;;;;;;2.55;1.10;;;;;;;30.53;35.44;95128.59;4885053;29;20034;-83
2023/06/06 06:17:30;;;;;;;1.33;1.00;;;;;;;30.89;33.89;95149.44;4921690;29;20078;-80
2023/06/06 06:19:55;;;;;;;1.10;0.98;;;;;;;32.05;34.38;95148.09;4902552;29;20028;-80
2023/06/06 06:22:22;;;;;;;5.82;0.90;;;;;;;31.52;34.77;95149.69;4904028;29;20653;-80
2023/06/06 06:24:49;;;;;;;1.85;0.98;;;;;;;31.57;36.09;95139.66;4901987;29;20134;-81
2023/06/06 06:27:15;;;;;;;3.10;1.27;;;;;;;28.88;40.48;95146.28;4919598;29;20039;-80
2023/06/06 06:29:40;;;;;;;2.03;0.80;;;;;;;27.38;42.33;95146.00;4902877;29;20023;-80
2023/06/06 06:32:06;;;;;;;2.78;1.13;;;;;;;25.87;46.50;95138.75;4903746;29;20027;-80
2023/06/06 06:34:33;;;;;;;2.05;1.05;;;;;;;26.33;45.20;95134.38;4920663;29;20451;-80
2023/06/06 06:36:59;;;;;;;1.35;1.20;;;;;;;25.88;43.33;95129.75;4920206;29;20070;-81
2023/06/06 06:39:24;;;;;;;2.58;1.17;;;;;;;26.86;41.97;95127.75;4904033;29;20142;-84
2023/06/06 06:41:52;;;;;;;2.65;1.10;;;;;;;29.78;35.27;95131.19;4895966;29;20035;-90
2023/06/06 06:44:18;;;;;;;2.00;1.17;;;;;;;29.07;36.90;95127.69;4898382;29;20174;-87
2023/06/06 06:46:43;;;;;;;2.45;1.10;;;;;;;30.05;34.38;95116.44;4899295;29;20119;-85
2023/06/06 06:49:14;;;;;;;3.65;1.83;;;;;;;29.12;37.31;95125.75;4912779;29;20038;-87
2023/06/06 06:51:41;;;;;;;2.15;1.10;;;;;;;27.03;39.96;95110.44;4903257;29;20517;-82
2023/06/06 06:54:11;;;;;;;2.03;1.00;;;;;;;25.92;41.84;95120.16;4921258;29;20405;-78
2023/06/06 06:56:36;;;;;;;2.35;0.82;;;;;;;24.24;43.40;95109.59;4907218;29;20417;-85
2023/06/06 06:59:03;;;;;;;2.53;1.30;;;;;;;25.26;43.29;95108.50;4906135;29;20036;-86
2023/06/06 07:01:29;;;;;;;1.77;1.20;;;;;;;25.69;43.17;95103.66;4907790;29;20024;-80
2023/06/06 07:03:55;;;;;;;2.03;1.15;;;;;;;25.61;42.52;95103.38;4921885;29;20062;-87
2023/06/06 07:06:22;;;;;;;4.07;1.33;;;;;;;26.70;41.86;95101.16;4907337;29;20032;-90
2023/06/06 07:08:49;;;;;;;4.45;1.42;;;;;;;27.59;38.70;95116.41;4887254;29;20040;-77
2023/06/06 07:11:14;;;;;;;2.60;1.10;;;;;;;26.24;42.61;95104.06;4915714;29;20023;-89
2023/06/06 07:13:39;;;;;;;1.42;1.17;;;;;;;25.22;44.25;95104.75;4890995;29;20027;-84
2023/06/06 07:16:05;;;;;;;4.53;1.20;;;;;;;25.36;45.38;95105.91;4905834;29;20474;-82
2023/06/06 07:18:30;;;;;;;2.22;1.30;;;;;;;24.71;45.34;95114.22;4924090;29;20284;-81
2023/06/06 07:20:56;;;;;;;2.30;1.33;;;;;;;24.07;47.75;95112.34;4922631;29;20047;-89
2023/06/06 07:23:21;;;;;;;2.60;1.50;;;;;;;24.10;47.28;95105.75;4891256;29;20055;-79
2023/06/06 07:25:47;;;;;;;3.10;1.40;;;;;;;23.56;47.38;95105.75;4905626;29;20051;-81
2023/06/06 07:28:13;;;;;;;2.75;1.33;;;;;;;23.92;47.97;95114.84;4906612;29;20520;-82
2023/06/06 07:30:39;;;;;;;1.73;1.33;;;;;;;24.16;48.27;95110.06;4923106;29;20395;-77
2023/06/06 07:33:04;;;;;;;5.18;1.60;;;;;;;23.05;49.63;95112.19;4923297;29;20055;-79
2023/06/06 07:35:32;;;;;;;3.67;1.60;;;;;;;23.07;50.05;95114.59;4906626;29;20024;-79
2023/06/06 07:38:02;;;;;;;4.57;1.55;;;;;;;23.09;51.27;95108.03;4921152;29;20090;-87
2023/06/06 07:40:28;;;;;;;4.13;2.65;;;;;;;23.24;51.30;95107.44;4906960;29;20151;-82
2023/06/06 07:42:54;;;;;;;4.85;4.35;;;;;;;24.18;52.51;95102.66;4905188;29;20094;-84
2023/06/06 07:45:20;;;;;;;2.35;2.15;;;;;;;24.22;49.47;95095.84;4923904;29;20438;-90
2023/06/06 07:47:46;;;;;;;3.75;2.58;;;;;;;24.53;49.70;95091.59;4889821;29;20533;-83
2023/06/06 07:50:12;;;;;;;4.15;3.05;;;;;;;24.44;51.09;95104.50;4905797;29;20470;-86
2023/06/06 07:52:43;;;;;;;6.30;2.45;;;;;;;23.72;48.48;95097.97;4906448;29;20031;-82
2023/06/06 07:55:09;;;;;;;5.53;1.73;;;;;;;23.11;51.11;95110.44;4905861;29;20446;-78
2023/06/06 07:57:34;;;;;;;4.72;2.00;;;;;;;22.50;53.57;95112.16;4925747;29;20039;-84
2023/06/06 08:00:00;;;;;;;4.13;1.50;;;;;;;22.53;53.85;95114.34;4919164;29;20682;-77
2023/06/06 08:02:26;;;;;;;2.88;1.67;;;;;;;22.44;56.13;95122.91;4901931;29;20929;-84
2023/06/06 08:04:52;;;;;;;2.17;1.67;;;;;;;23.03;55.11;95105.56;4920835;29;20106;-83
2023/06/06 08:07:18;;;;;;;4.28;2.28;;;;;;;23.74;52.57;95112.53;4906458;29;20046;-78
2023/06/06 08:09:43;;;;;;;2.10;1.92;;;;;;;22.69;56.11;95111.94;4917417;29;20496;-85
2023/06/06 08:12:10;;;;;;;2.40;1.83;;;;;;;22.33;54.02;95106.06;4906533;29;20036;-77
2023/06/06 08:14:36;;;;;;;3.05;2.00;;;;;;;22.40;54.24;95112.00;4923412;29;20028;-76
2023/06/06 08:17:03;;;;;;;4.53;2.72;;;;;;;22.77;54.51;95101.75;4906336;29;20047;-81
2023/06/06 08:19:29;;;;;;;3.60;2.40;;;;;;;23.58;55.65;95103.63;4922922;29;20067;-76
2023/06/06 08:21:54;;;;;;;4.70;2.10;;;;;;;23.13;54.27;95100.41;4905351;29;20036;-75
2023/06/06 08:24:20;;;;;;;2.83;1.67;;;;;;;22.55;56.22;95104.31;4922722;29;20650;-76
2023/06/06 08:26:45;;;;;;;1.80;1.70;;;;;;;22.81;55.96;95099.44;4919734;29;20045;-89
2023/06/06 08:29:10;;;;;;;2.30;1.80;;;;;;;22.72;55.77;95101.69;4898698;29;20419;-80
2023/06/06 08:31:36;;;;;;;3.15;1.85;;;;;;;22.83;56.76;95102.66;4922794;29;20019;-80
2023/06/06 08:34:02;;;;;;;2.83;2.03;;;;;;;22.80;56.89;95093.34;4904729;29;20134;-76
2023/06/06 08:36:27;;;;;;;4.45;2.85;;;;;;;22.98;56.36;95105.50;4906125;29;20027;-80
2023/06/06 08:38:52;;;;;;;2.33;1.80;;;;;;;23.12;56.19;95096.16;4922725;29;20171;-79
2023/06/06 08:41:19;;;;;;;2.47;1.67;;;;;;;23.13;58.04;95089.84;4905752;29;20175;-78
2023/06/06 08:43:46;;;;;;;3.97;2.22;;;;;;;23.56;54.70;95091.72;4906361;29;20052;-77
2023/06/06 08:46:13;;;;;;;4.75;2.60;;;;;;;23.33;56.46;95092.75;4923916;29;20210;-78
2023/06/06 08:48:38;;;;;;;2.20;1.52;;;;;;;23.39;57.86;95094.41;4905879;29;20032;-76
2023/06/06 08:51:04;;;;;;;2.88;2.20;;;;;;;23.26;57.49;95099.25;4919834;29;20043;-79
2023/06/06 08:53:30;;;;;;;2.63;1.60;;;;;;;23.29;56.70;95093.47;4904718;29;20652;-75
2023/06/06 08:55:57;;;;;;;4.13;2.30;;;;;;;23.94;58.16;95099.53;4899019;29;20192;-88
2023/06/06 08:58:22;;;;;;;2.55;2.35;;;;;;;23.09;56.76;95089.53;4906878;29;20490;-76
2023/06/06 09:00:51;;;;;;;5.43;2.58;;;;;;;22.79;58.29;95090.97;4889680;29;20043;-83
2023/06/06 09:03:20;;;;;;;6.40;3.08;;;;;;;23.18;57.28;95087.28;4906958;29;20136;-78
2023/06/06 09:05:47;;;;;;;2.28;2.08;;;;;;;22.87;57.28;95077.31;4923771;29;20426;-80
2023/06/06 09:08:12;;;;;;;4.93;2.10;;;;;;;23.46;57.47;95084.47;4890182;29;20044;-91
2023/06/06 09:10:38;;;;;;;16.45;11.80;;;;;;;23.04;56.83;95088.66;4890650;29;20665;-77
2023/06/06 09:13:03;;;;;;;14.70;13.05;;;;;;;22.88;58.95;95086.84;4922277;29;20108;-79
2023/06/06 09:15:29;;;;;;;3.95;2.38;;;;;;;22.95;60.76;95085.66;4924702;29;20023;-80
2023/06/06 09:17:55;;;;;;;2.25;2.03;;;;;;;22.83;60.26;95090.22;4922092;29;20032;-80
2023/06/06 09:20:21;;;;;;;2.50;2.10;;;;;;;23.24;60.60;95088.94;4907846;29;20070;-80
2023/06/06 09:22:49;;;;;;;2.17;1.88;;;;;;;22.38;61.86;95076.34;4889187;29;20040;-78
2023/06/06 09:25:21;;;;;;;2.92;2.25;;;;;;;22.86;62.43;95078.38;4906619;29;20883;-85
2023/06/06 09:27:47;;;;;;;3.55;2.22;;;;;;;22.87;59.52;95082.59;4923098;29;20032;-76
2023/06/06 09:30:23;;;;;;;7.55;5.70;;;;;;;23.14;59.73;95078.22;4922247;29;20039;-78
2023/06/06 09:32:53;;;;;;;2.13;1.92;;;;;;;22.55;60.96;95070.00;4923676;29;20074;-88
2023/06/06 09:35:19;;;;;;;2.55;2.15;;;;;;;22.80;60.91;95068.75;4922030;29;20032;-80
2023/06/06 09:37:46;;;;;;;2.80;1.92;;;;;;;22.63;60.30;95066.16;4923295;29;20051;-82
2023/06/06 09:40:16;;;;;;;6.47;2.10;;;;;;;22.81;58.26;95068.53;4905260;29;20430;-77
2023/06/06 09:42:44;;;;;;;3.33;2.50;;;;;;;22.86;58.47;95063.31;4922913;29;20039;-78
2023/06/06 09:45:17;;;;;;;2.80;1.90;;;;;;;22.81;56.36;95051.88;4905626;29;20043;-88
2023/06/06 09:47:43;;;;;;;4.15;1.90;;;;;;;22.99;59.41;95067.44;4899135;29;20510;-84
2023/06/06 09:50:10;;;;;;;4.10;1.92;;;;;;;23.22;59.64;95061.13;4901208;29;20525;-82
2023/06/06 09:52:36;;;;;;;6.05;2.00;;;;;;;23.65;62.81;95065.59;4909617;29;20093;-81
2023/06/06 09:55:06;;;;;;;2.03;1.60;;;;;;;23.66;56.45;95061.94;4914212;29;20129;-84
2023/06/06 09:57:34;;;;;;;7.18;2.05;;;;;;;23.49;58.16;95054.06;4912065;29;20529;-88
2023/06/06 10:00:06;;;;;;;2.25;1.90;;;;;;;23.61;61.99;95047.59;4906248;29;20493;-87
2023/06/06 10:02:33;;;;;;;2.08;1.65;;;;;;;23.43;56.38;95057.72;4914714;29;20032;-82
2023/06/06 10:04:58;;;;;;;2.20;1.85;;;;;;;23.52;55.15;95045.63;4920260;29;20036;-83
2023/06/06 10:07:26;;;;;;;2.00;1.80;;;;;;;23.54;54.85;95038.25;4917552;29;20027;-90
2023/06/06 10:09:51;;;;;;;5.45;1.92;;;;;;;24.29;59.50;95032.88;4899796;29;20501;-80
2023/06/06 10:12:17;;;;;;;2.00;1.73;;;;;;;24.21;57.76;95033.31;4905695;29;20040;-86
2023/06/06 10:14:42;;;;;;;2.63;2.28;;;;;;;24.05;57.47;95024.44;4903587;29;20020;-85
2023/06/06 10:17:09;;;;;;;2.10;1.80;;;;;;;23.95;56.83;95021.69;4905485;29;20525;-78
2023/06/06 10:19:37;;;;;;;2.25;1.73;;;;;;;24.33;57.08;95023.38;4905777;29;20042;-80
2023/06/06 10:22:02;;;;;;;4.05;3.28;;;;;;;24.02;53.99;95010.91;4905470;29;20036;-80
2023/06/06 10:24:28;;;;;;;2.28;2.10;;;;;;;23.78;55.71;95014.94;4889633;29;20572;-82
2023/06/06 10:27:08;;;;;;;2.30;1.85;;;;;;;24.13;54.98;95013.44;4921679;29;20502;-91
2023/06/06 10:30:01;;;;;;;4.78;2.00;;;;;;;24.29;53.99;95010.88;4893666;29;20042;-90
2023/06/06 10:32:43;;;;;;;4.13;2.10;;;;;;;23.99;55.22;95000.81;4909201;29;20406;-81
2023/06/06 10:35:10;;;;;;;6.18;2.30;;;;;;;24.42;56.35;95013.91;4909769;29;20114;-86
2023/06/06 10:37:38;;;;;;;2.40;2.20;;;;;;;23.79;54.78;94998.03;4909789;29;20028;-83
2023/06/06 10:40:09;;;;;;;2.22;1.85;;;;;;;23.80;55.40;95007.53;4924999;29;20031;-85
2023/06/06 10:42:44;;;;;;;5.68;2.13;;;;;;;24.23;54.97;94990.72;4883106;29;20482;-90
2023/06/06 10:45:09;;;;;;;4.25;2.22;;;;;;;24.77;56.91;94999.25;4897821;29;20075;-84
2023/06/06 10:47:40;;;;;;;3.25;2.05;;;;;;;24.17;50.16;94991.75;4925643;29;20523;-85
2023/06/06 10:50:11;;;;;;;3.20;2.15;;;;;;;24.05;51.87;94994.50;4925901;29;20028;-83
2023/06/06 10:53:04;;;;;;;3.70;2.40;;;;;;;24.58;51.29;94983.00;4925884;29;20031;-83
2023/06/06 10:55:30;;;;;;;2.50;2.10;;;;;;;24.18;55.86;94983.53;4911228;29;20438;-84
2023/06/06 10:58:21;;;;;;;4.05;3.38;;;;;;;24.31;51.42;94988.38;4924978;29;20508;-86
2023/06/06 11:00:48;;;;;;;5.22;2.38;;;;;;;24.42;49.69;94989.25;4925084;29;20162;-80
2023/06/06 11:03:16;;;;;;;4.35;2.33;;;;;;;24.22;50.13;94979.31;4925622;29;20401;-83
2023/06/06 11:05:59;;;;;;;3.00;2.40;;;;;;;24.50;51.67;94970.22;4892018;29;20027;-79
2023/06/06 11:08:38;;;;;;;6.65;5.95;;;;;;;24.53;46.11;94975.03;4924376;29;20028;-79
2023/06/06 11:11:16;;;;;;;3.08;2.67;;;;;;;24.30;47.62;94976.22;4907722;29;20081;-79
2023/06/06 11:13:54;;;;;;;2.50;2.30;;;;;;;24.39;47.06;94979.97;4908490;29;20083;-77
2023/06/06 11:16:41;;;;;;;2.20;2.00;;;;;;;24.58;48.45;94975.84;4925727;29;20565;-82
2023/06/06 11:19:08;;;;;;;4.88;2.78;;;;;;;24.26;46.90;94976.97;4923230;29;20934;-84
2023/06/06 11:21:40;;;;;;;8.88;7.95;;;;;;;24.61;50.41;94969.22;4909471;29;20054;-82
2023/06/06 11:24:07;;;;;;;4.70;2.80;;;;;;;24.51;54.38;94975.28;4891104;29;20565;-81
2023/06/06 11:26:33;;;;;;;3.25;2.17;;;;;;;24.72;50.89;94967.44;4892878;29;20038;-90
2023/06/06 11:29:00;;;;;;;3.85;2.10;;;;;;;24.69;49.44;94968.75;4907790;29;20038;-84
2023/06/06 11:31:26;;;;;;;7.53;2.50;;;;;;;24.44;47.50;94961.47;4924958;29;20118;-83
2023/06/06 11:33:53;;;;;;;2.10;1.90;;;;;;;24.47;51.58;94966.25;4908608;29;20422;-81
2023/06/06 11:36:19;;;;;;;3.22;1.88;;;;;;;24.38;52.35;94973.09;4924261;29;20031;-79
2023/06/06 11:38:45;;;;;;;3.85;2.20;;;;;;;24.62;50.54;94966.34;4925609;29;20041;-86
2023/06/06 11:41:11;;;;;;;2.05;1.80;;;;;;;24.66;47.90;94970.06;4922588;29;20059;-77